createdAt,value
2018-03-22T00:01:05.261Z,101692.95
2018-03-22T00:03:31.132Z,101705.51
2018-03-22T00:05:56.993Z,101696.53
2018-03-22T00:08:22.910Z,101698.41
2018-03-22T00:10:48.785Z,101701.52
2018-03-22T00:13:14.634Z,101699.14
2018-03-22T00:15:40.589Z,101701.92
2018-03-22T00:18:06.468Z,101694.19
2018-03-22T00:20:32.316Z,101682.81
2018-03-22T00:22:58.300Z,101687.50
2018-03-22T00:25:24.155Z,101680.57
2018-03-22T00:27:50.653Z,101679.77
2018-03-22T00:30:16.773Z,101673.16
2018-03-22T00:32:43.116Z,101671.27
2018-03-22T00:35:09.372Z,101677.77
2018-03-22T00:37:35.698Z,101662.39
2018-03-22T00:40:02.069Z,101662.83
2018-03-22T00:42:28.418Z,101649.33
2018-03-22T00:44:54.784Z,101648.52
2018-03-22T00:47:21.147Z,101643.17
2018-03-22T00:49:47.361Z,101643.13
2018-03-22T00:52:13.707Z,101632.75
2018-03-22T00:54:39.603Z,101624.97
2018-03-22T00:57:05.488Z,101624.54
2018-03-22T00:59:31.413Z,101622.11
2018-03-22T01:01:57.257Z,101607.41
2018-03-22T01:04:23.100Z,101610.00
2018-03-22T01:06:49.000Z,101607.45
2018-03-22T01:09:14.848Z,101595.83
2018-03-22T01:11:40.698Z,101601.98
2018-03-22T01:14:06.597Z,101598.09
2018-03-22T01:16:32.452Z,101593.75
2018-03-22T01:18:58.300Z,101583.78
2018-03-22T01:21:24.205Z,101583.38
2018-03-22T01:23:50.053Z,101583.23
2018-03-22T01:26:15.965Z,101573.28
2018-03-22T01:28:41.922Z,101566.81
2018-03-22T01:31:07.768Z,101562.77
2018-03-22T01:33:33.613Z,101555.05
2018-03-22T01:35:59.504Z,101551.52
2018-03-22T01:38:25.368Z,101546.84
2018-03-22T01:40:51.234Z,101538.31
2018-03-22T01:43:17.129Z,101539.16
2018-03-22T01:45:43.022Z,101528.08
2018-03-22T01:48:08.881Z,101518.25
2018-03-22T01:50:34.769Z,101512.45
2018-03-22T01:53:12.869Z,101509.92
2018-03-22T01:55:38.863Z,101506.97
2018-03-22T01:58:04.741Z,101507.73
2018-03-22T02:00:30.605Z,101497.70
2018-03-22T02:02:56.500Z,101493.36
2018-03-22T02:05:22.348Z,101484.44
2018-03-22T02:07:48.218Z,101477.94
2018-03-22T02:10:14.109Z,101473.77
2018-03-22T02:12:39.973Z,101474.17
2018-03-22T02:15:05.858Z,101471.25
2018-03-22T02:17:31.778Z,101460.44
2018-03-22T02:19:57.620Z,101450.97
2018-03-22T02:22:23.480Z,101445.76
2018-03-22T02:24:49.380Z,101449.61
2018-03-22T02:27:15.237Z,101444.92
2018-03-22T02:29:41.189Z,101437.94
2018-03-22T02:32:07.086Z,101429.70
2018-03-22T02:34:32.940Z,101431.16
2018-03-22T02:36:58.785Z,101425.11
2018-03-22T02:39:24.711Z,101416.91
2018-03-22T02:41:50.644Z,101417.22
2018-03-22T02:44:16.512Z,101415.02
2018-03-22T02:46:42.453Z,101409.77
2018-03-22T02:49:08.304Z,101409.86
2018-03-22T02:51:34.152Z,101402.43
2018-03-22T02:54:00.285Z,101398.82
2018-03-22T02:56:26.149Z,101392.66
2018-03-22T02:58:51.997Z,101387.00
2018-03-22T03:01:17.932Z,101383.57
2018-03-22T03:03:43.801Z,101379.20
2018-03-22T03:06:09.741Z,101373.08
2018-03-22T03:08:35.936Z,101368.63
2018-03-22T03:11:01.801Z,101364.78
2018-03-22T03:13:27.653Z,101360.92
2018-03-22T03:15:53.947Z,101348.43
2018-03-22T03:18:19.889Z,101354.84
2018-03-22T03:20:45.740Z,101345.96
2018-03-22T03:23:11.654Z,101344.56
2018-03-22T03:25:37.501Z,101342.71
2018-03-22T03:28:03.358Z,101331.63
2018-03-22T03:30:29.395Z,101325.41
2018-03-22T03:32:55.246Z,101319.78
2018-03-22T03:35:21.109Z,101318.83
2018-03-22T03:37:47.013Z,101309.34
2018-03-22T03:40:12.893Z,101310.19
2018-03-22T03:42:38.844Z,101297.50
2018-03-22T03:45:04.749Z,101290.76
2018-03-22T03:47:30.592Z,101286.44
2018-03-22T03:49:56.445Z,101282.66
2018-03-22T03:52:22.593Z,101281.08
2018-03-22T03:54:48.571Z,101265.00
2018-03-22T03:57:14.425Z,101263.59
2018-03-22T03:59:40.630Z,101265.32
2018-03-22T04:02:06.492Z,101256.21
2018-03-22T04:04:32.405Z,101257.42
2018-03-22T04:06:58.692Z,101255.35
2018-03-22T04:09:24.566Z,101248.95
2018-03-22T04:11:50.412Z,101235.98
2018-03-22T04:14:16.300Z,101231.89
2018-03-22T04:16:42.272Z,101235.44
2018-03-22T04:19:08.209Z,101236.87
2018-03-22T04:21:34.113Z,101235.69
2018-03-22T04:23:59.980Z,101232.15
2018-03-22T04:26:25.824Z,101222.26
2018-03-22T04:28:51.757Z,101217.62
2018-03-22T04:31:17.702Z,101214.93
2018-03-22T04:33:43.558Z,101209.70
2018-03-22T04:36:09.464Z,101208.05
2018-03-22T04:38:35.318Z,101192.53
2018-03-22T04:41:01.216Z,101192.63
2018-03-22T04:43:27.225Z,101185.60
2018-03-22T04:45:53.091Z,101188.59
2018-03-22T04:48:18.931Z,101187.58
2018-03-22T04:50:44.838Z,101188.49
2018-03-22T04:53:10.747Z,101188.55
2018-03-22T04:55:36.680Z,101182.45
2018-03-22T04:58:02.596Z,101175.09
2018-03-22T05:00:28.474Z,101169.53
2018-03-22T05:02:54.326Z,101162.59
2018-03-22T05:05:20.613Z,101160.84
2018-03-22T05:07:46.548Z,101168.27
2018-03-22T05:10:12.450Z,101154.84
2018-03-22T05:12:38.345Z,101148.28
2018-03-22T05:15:04.218Z,101144.41
2018-03-22T05:17:30.120Z,101151.28
2018-03-22T05:19:56.108Z,101138.39
2018-03-22T05:22:21.964Z,101131.91
2018-03-22T05:24:47.823Z,101138.44
2018-03-22T05:27:13.716Z,101122.92
2018-03-22T05:29:39.629Z,101126.81
2018-03-22T05:32:05.576Z,101133.00
2018-03-22T05:34:31.481Z,101129.13
2018-03-22T05:36:57.339Z,101136.58
2018-03-22T05:39:23.214Z,101134.09
2018-03-22T05:41:49.177Z,101134.15
2018-03-22T05:44:15.264Z,101129.49
2018-03-22T05:46:41.131Z,101139.39
2018-03-22T05:49:07.038Z,101131.59
2018-03-22T05:51:32.898Z,101136.34
2018-03-22T05:53:59.655Z,101142.89
2018-03-22T05:56:25.730Z,101141.63
2018-03-22T05:58:51.596Z,101139.86
2018-03-22T06:01:17.448Z,101135.57
2018-03-22T06:03:43.418Z,101131.42
2018-03-22T06:06:09.321Z,101112.32
2018-03-22T06:08:35.236Z,101094.80
2018-03-22T06:11:01.132Z,101098.86
2018-03-22T06:13:26.980Z,101085.39
2018-03-22T06:15:52.840Z,101076.36
2018-03-22T06:18:18.792Z,101083.48
2018-03-22T06:20:44.725Z,101065.92
2018-03-22T06:23:10.572Z,101056.27
2018-03-22T06:25:36.469Z,101054.71
2018-03-22T06:28:02.330Z,101045.34
2018-03-22T06:30:28.238Z,101046.27
2018-03-22T06:32:54.503Z,101047.14
2018-03-22T06:35:20.364Z,101039.98
2018-03-22T06:37:46.221Z,101028.84
2018-03-22T06:40:12.143Z,101022.80
2018-03-22T06:42:38.036Z,101022.57
2018-03-22T06:45:03.998Z,101019.92
2018-03-22T06:47:29.905Z,101004.42
2018-03-22T06:49:55.801Z,101003.99
2018-03-22T06:52:21.659Z,101001.73
2018-03-22T06:54:47.797Z,100992.33
2018-03-22T06:57:13.762Z,100999.34
2018-03-22T06:59:39.633Z,100997.11
2018-03-22T07:02:05.525Z,100986.67
2018-03-22T07:04:31.373Z,100979.28
2018-03-22T07:06:57.334Z,100971.60
2018-03-22T07:09:23.289Z,100977.14
2018-03-22T07:11:49.136Z,100971.94
2018-03-22T07:14:14.996Z,100964.23
2018-03-22T07:16:40.906Z,100962.98
2018-03-22T07:19:06.812Z,100959.58
2018-03-22T07:21:32.747Z,100959.14
2018-03-22T07:23:58.652Z,100956.89
2018-03-22T07:26:24.501Z,100962.17
2018-03-22T07:28:50.349Z,100964.17
2018-03-22T07:31:16.321Z,100948.65
2018-03-22T07:33:42.258Z,100950.59
2018-03-22T07:36:08.154Z,100949.24
2018-03-22T07:38:34.055Z,100940.27
2018-03-22T07:40:59.926Z,100926.88
2018-03-22T07:43:31.937Z,100931.55
2018-03-22T07:45:57.925Z,100913.70
2018-03-22T07:48:23.778Z,100908.97
2018-03-22T07:50:49.625Z,100902.00
2018-03-22T07:53:15.538Z,100894.47
2018-03-22T07:55:41.453Z,100900.11
2018-03-22T07:58:07.404Z,100894.64
2018-03-22T08:00:33.294Z,100890.23
2018-03-22T08:02:59.913Z,100888.56
2018-03-22T08:05:25.772Z,100884.76
2018-03-22T08:07:51.719Z,100882.73
2018-03-22T08:10:17.653Z,100872.80
2018-03-22T08:12:43.497Z,100883.28
2018-03-22T08:15:09.412Z,100865.69
2018-03-22T08:17:35.257Z,100868.30
2018-03-22T08:20:01.158Z,100864.54
2018-03-22T08:22:27.136Z,100864.23
2018-03-22T08:24:52.978Z,100861.25
2018-03-22T08:27:18.825Z,100858.53
2018-03-22T08:29:44.837Z,100843.80
2018-03-22T08:32:10.766Z,100837.37
2018-03-22T08:34:36.740Z,100845.08
2018-03-22T08:37:02.631Z,100846.45
2018-03-22T08:39:28.492Z,100832.63
2018-03-22T08:41:54.352Z,100837.03
2018-03-22T08:44:20.309Z,100835.34
2018-03-22T08:46:46.245Z,100835.34
2018-03-22T08:49:12.096Z,100830.50
2018-03-22T08:51:38.056Z,100830.06
2018-03-22T08:54:04.130Z,100841.19
2018-03-22T08:56:30.080Z,100839.20
2018-03-22T08:58:56.058Z,100831.30
2018-03-22T09:01:21.922Z,100830.59
2018-03-22T09:03:47.765Z,100831.59
2018-03-22T09:06:13.653Z,100827.30
2018-03-22T09:08:39.579Z,100821.64
2018-03-22T09:11:05.476Z,100819.28
2018-03-22T09:13:31.416Z,100820.75
2018-03-22T09:15:57.273Z,100818.47
2018-03-22T09:18:23.122Z,100821.64
2018-03-22T09:20:49.036Z,100813.42
2018-03-22T09:23:14.886Z,100807.92
2018-03-22T09:25:40.820Z,100804.05
2018-03-22T09:28:06.706Z,100798.48
2018-03-22T09:30:32.579Z,100784.94
2018-03-22T09:32:58.493Z,100786.25
2018-03-22T09:35:24.411Z,100782.43
2018-03-22T09:37:50.261Z,100782.30
2018-03-22T09:40:16.123Z,100782.67
2018-03-22T09:42:42.024Z,100774.02
2018-03-22T09:45:07.982Z,100772.40
2018-03-22T09:47:33.928Z,100774.12
2018-03-22T09:49:59.883Z,100773.66
2018-03-22T09:52:25.791Z,100779.66
2018-03-22T09:54:51.636Z,100770.03
2018-03-22T09:57:17.537Z,100757.94
2018-03-22T09:59:43.404Z,100761.75
2018-03-22T10:02:09.244Z,100761.67
2018-03-22T10:04:35.156Z,100757.80
2018-03-22T10:07:01.094Z,100748.16
2018-03-22T10:09:26.948Z,100746.44
2018-03-22T10:11:53.174Z,100753.88
2018-03-22T10:14:19.093Z,100755.62
2018-03-22T10:16:44.961Z,100744.77
2018-03-22T10:19:10.914Z,100740.45
2018-03-22T10:21:36.756Z,100744.41
2018-03-22T10:24:02.772Z,100741.81
2018-03-22T10:26:28.955Z,100734.24
2018-03-22T10:28:54.809Z,100725.24
2018-03-22T10:31:20.669Z,100730.52
2018-03-22T10:33:46.565Z,100710.73
2018-03-22T10:36:12.426Z,100719.36
2018-03-22T10:38:38.609Z,100727.66
2018-03-22T10:41:04.549Z,100731.01
2018-03-22T10:43:30.539Z,100723.14
2018-03-22T10:45:56.409Z,100717.97
2018-03-22T10:48:22.351Z,100708.16
2018-03-22T10:50:48.255Z,100715.19
2018-03-22T10:53:14.113Z,100704.84
2018-03-22T10:55:40.102Z,100704.30
2018-03-22T10:58:05.957Z,100713.31
2018-03-22T11:00:37.776Z,100712.41
2018-03-22T11:03:10.704Z,100713.66
2018-03-22T11:05:36.564Z,100699.39
2018-03-22T11:08:02.429Z,100701.08
2018-03-22T11:10:28.317Z,100696.47
2018-03-22T11:12:54.169Z,100689.08
2018-03-22T11:15:21.025Z,100688.31
2018-03-22T11:17:46.926Z,100684.47
2018-03-22T11:20:12.788Z,100684.52
2018-03-22T11:22:38.646Z,100681.98
2018-03-22T11:25:04.550Z,100678.16
2018-03-22T11:27:30.440Z,100670.86
2018-03-22T11:29:56.277Z,100678.66
2018-03-22T11:32:22.172Z,100673.09
2018-03-22T11:34:48.082Z,100665.72
2018-03-22T11:37:13.933Z,100665.71
2018-03-22T11:39:39.817Z,100658.84
2018-03-22T11:42:05.661Z,100660.55
2018-03-22T11:47:13.711Z,100654.13
2018-03-22T11:49:39.650Z,100654.55
2018-03-22T11:52:05.596Z,100658.47
2018-03-22T11:54:31.485Z,100648.11
2018-03-22T11:56:57.345Z,100651.97
2018-03-22T11:59:23.281Z,100642.92
2018-03-22T12:01:49.219Z,100641.56
2018-03-22T12:04:15.144Z,100635.06
2018-03-22T12:06:41.000Z,100633.30
2018-03-22T12:09:06.881Z,100632.02
2018-03-22T12:11:32.729Z,100625.52
2018-03-22T12:13:58.582Z,100629.04
2018-03-22T12:16:24.559Z,100628.15
2018-03-22T12:18:50.414Z,100621.22
2018-03-22T12:21:16.265Z,100620.03
2018-03-22T12:23:42.165Z,100607.85
2018-03-22T12:26:08.021Z,100619.10
2018-03-22T12:28:33.971Z,100613.04
2018-03-22T12:30:59.867Z,100620.45
2018-03-22T12:33:25.726Z,100616.15
2018-03-22T12:35:51.658Z,100615.72
2018-03-22T12:38:17.558Z,100600.56
2018-03-22T12:40:43.513Z,100607.02
2018-03-22T12:43:09.390Z,100603.13
2018-03-22T12:45:35.326Z,100595.77
2018-03-22T12:48:01.173Z,100599.25
2018-03-22T12:50:27.058Z,100585.38
2018-03-22T12:52:53.424Z,100594.08
2018-03-22T12:55:19.288Z,100590.62
2018-03-22T12:57:45.152Z,100584.59
2018-03-22T13:00:11.048Z,100594.96
2018-03-22T13:02:36.906Z,100590.19
2018-03-22T13:05:02.882Z,100578.50
2018-03-22T13:07:28.780Z,100581.11
2018-03-22T13:09:54.628Z,100581.53
2018-03-22T13:12:20.477Z,100579.37
2018-03-22T13:14:46.394Z,100586.73
2018-03-22T13:17:12.324Z,100586.73
2018-03-22T13:19:38.169Z,100578.95
2018-03-22T13:22:04.081Z,100579.35
2018-03-22T13:24:29.946Z,100570.31
2018-03-22T13:26:55.806Z,100572.44
2018-03-22T13:29:21.781Z,100573.30
2018-03-22T13:31:47.637Z,100576.78
2018-03-22T13:34:13.480Z,100575.47
2018-03-22T13:36:39.370Z,100573.30
2018-03-22T13:39:05.235Z,100565.05
2018-03-22T13:41:31.144Z,100568.08
2018-03-22T13:43:57.097Z,100569.84
2018-03-22T13:46:22.940Z,100569.00
2018-03-22T13:48:48.789Z,100566.39
2018-03-22T13:51:14.690Z,100566.83
2018-03-22T13:53:40.654Z,100567.27
2018-03-22T13:56:06.492Z,100560.77
2018-03-22T13:58:32.694Z,100564.25
2018-03-22T14:00:58.593Z,100566.39
2018-03-22T14:03:24.450Z,100572.04
2018-03-22T14:05:50.461Z,100568.13
2018-03-22T14:08:16.316Z,100562.06
2018-03-22T14:10:42.169Z,100569.00
2018-03-22T14:13:08.050Z,100572.02
2018-03-22T14:15:33.898Z,100562.91
2018-03-22T14:17:59.745Z,100563.80
2018-03-22T14:20:25.696Z,100566.39
2018-03-22T14:22:51.537Z,100558.61
2018-03-22T14:25:17.394Z,100557.30
2018-03-22T14:27:43.306Z,100555.99
2018-03-22T14:30:09.169Z,100550.38
2018-03-22T14:32:35.037Z,100562.55
2018-03-22T14:35:01.059Z,100556.90
2018-03-22T14:37:27.006Z,100553.44
2018-03-22T14:39:52.909Z,100558.64
2018-03-22T14:42:19.304Z,100549.52
2018-03-22T14:44:45.165Z,100543.42
2018-03-22T14:47:11.163Z,100547.76
2018-03-22T14:49:37.776Z,100543.00
2018-03-22T14:52:03.656Z,100543.01
2018-03-22T14:54:29.496Z,100540.41
2018-03-22T14:56:55.470Z,100536.06
2018-03-22T14:59:21.329Z,100527.41
2018-03-22T15:01:47.188Z,100539.55
2018-03-22T15:04:13.069Z,100533.48
2018-03-22T15:06:38.913Z,100530.45
2018-03-22T15:09:04.803Z,100536.50
2018-03-22T15:11:30.680Z,100536.52
2018-03-22T15:13:56.581Z,100526.52
2018-03-22T15:16:22.433Z,100534.78
2018-03-22T15:18:48.313Z,100534.78
2018-03-22T15:21:14.157Z,100538.69
2018-03-22T15:23:40.023Z,100540.43
2018-03-22T15:26:05.915Z,100540.00
2018-03-22T15:28:31.770Z,100534.77
2018-03-22T15:30:57.701Z,100530.89
2018-03-22T15:33:23.590Z,100529.13
2018-03-22T15:35:49.444Z,100532.17
2018-03-22T15:38:15.313Z,100530.00
2018-03-22T15:40:41.192Z,100529.98
2018-03-22T15:43:07.081Z,100527.39
2018-03-22T15:45:32.981Z,100524.37
2018-03-22T15:47:58.860Z,100532.61
2018-03-22T15:50:24.746Z,100522.63
2018-03-22T15:52:50.605Z,100534.78
2018-03-22T15:55:16.971Z,100523.08
2018-03-22T15:57:42.871Z,100527.41
2018-03-22T16:00:08.777Z,100532.63
2018-03-22T16:02:34.640Z,100536.09
2018-03-22T16:05:00.548Z,100537.38
2018-03-22T16:07:26.402Z,100536.06
2018-03-22T16:09:52.293Z,100534.33
2018-03-22T16:12:18.150Z,100531.72
2018-03-22T16:14:44.432Z,100530.00
2018-03-22T16:17:10.392Z,100538.23
2018-03-22T16:19:36.254Z,100535.61
2018-03-22T16:22:02.191Z,100534.77
2018-03-22T16:24:31.404Z,100537.34
2018-03-22T16:26:57.281Z,100535.20
2018-03-22T16:29:23.128Z,100543.84
2018-03-22T16:31:49.022Z,100536.93
2018-03-22T16:34:14.903Z,100539.52
2018-03-22T16:36:40.880Z,100537.78
2018-03-22T16:39:06.836Z,100538.64
2018-03-22T16:41:32.729Z,100543.00
2018-03-22T16:43:58.588Z,100541.24
2018-03-22T16:46:24.538Z,100541.27
2018-03-22T16:48:50.390Z,100536.48
2018-03-22T16:51:16.238Z,100529.56
2018-03-22T16:53:42.133Z,100537.36
2018-03-22T16:56:07.991Z,100531.27
2018-03-22T16:58:33.936Z,100532.59
2018-03-22T17:00:59.837Z,100528.69
2018-03-22T17:03:25.691Z,100532.58
2018-03-22T17:05:51.536Z,100534.31
2018-03-22T17:08:17.441Z,100539.95
2018-03-22T17:10:43.381Z,100541.25
2018-03-22T17:13:09.219Z,100539.09
2018-03-22T17:15:35.214Z,100541.70
2018-03-22T17:18:01.073Z,100537.75
2018-03-22T17:20:26.922Z,100528.23
2018-03-22T17:22:52.890Z,100541.23
2018-03-22T17:25:18.802Z,100531.70
2018-03-22T17:27:45.120Z,100530.39
2018-03-22T17:30:11.056Z,100530.83
2018-03-22T17:32:36.919Z,100536.90
2018-03-22T17:35:02.855Z,100532.14
2018-03-22T17:37:28.745Z,100524.33
2018-03-22T17:39:54.610Z,100532.14
2018-03-22T17:42:20.453Z,100526.94
2018-03-22T17:44:46.805Z,100534.30
2018-03-22T17:47:12.784Z,100531.70
2018-03-22T17:49:38.656Z,100533.43
2018-03-22T17:52:04.630Z,100527.35
2018-03-22T17:54:30.477Z,100530.83
2018-03-22T17:56:56.312Z,100529.49
2018-03-22T17:59:22.308Z,100525.63
2018-03-22T18:01:48.174Z,100528.66
2018-03-22T18:04:14.029Z,100536.90
2018-03-22T18:06:40.037Z,100530.41
2018-03-22T18:09:05.897Z,100532.56
2018-03-22T18:11:31.872Z,100542.54
2018-03-22T18:13:57.816Z,100539.50
2018-03-22T18:16:23.700Z,100539.06
2018-03-22T18:18:49.537Z,100536.92
2018-03-22T18:21:15.418Z,100539.95
2018-03-22T18:23:41.352Z,100534.31
2018-03-22T18:26:07.193Z,100530.41
2018-03-22T18:28:33.085Z,100534.76
2018-03-22T18:30:58.933Z,100544.28
2018-03-22T18:33:24.790Z,100538.20
2018-03-22T18:35:50.773Z,100532.16
2018-03-22T18:38:16.627Z,100535.60
2018-03-22T18:40:42.544Z,100533.44
2018-03-22T18:43:08.446Z,100530.84
2018-03-22T18:45:34.644Z,100527.81
2018-03-22T18:48:00.602Z,100534.75
2018-03-22T18:50:26.528Z,100531.28
2018-03-22T18:52:52.378Z,100526.95
2018-03-22T18:55:18.228Z,100537.78
2018-03-22T18:57:44.137Z,100536.91
2018-03-22T19:00:10.386Z,100536.92
2018-03-22T19:02:36.268Z,100530.87
2018-03-22T19:05:02.181Z,100524.36
2018-03-22T19:07:28.038Z,100528.70
2018-03-22T19:09:53.890Z,100526.94
2018-03-22T19:12:19.921Z,100525.66
2018-03-22T19:14:45.799Z,100522.63
2018-03-22T19:17:11.644Z,100523.03
2018-03-22T19:19:37.827Z,100529.55
2018-03-22T19:22:03.707Z,100523.48
2018-03-22T19:24:29.656Z,100517.00
2018-03-22T19:26:55.548Z,100519.17
2018-03-22T19:29:21.413Z,100515.70
2018-03-22T19:31:47.297Z,100511.79
2018-03-22T19:34:13.168Z,100516.14
2018-03-22T19:36:39.118Z,100510.06
2018-03-22T19:39:04.990Z,100507.91
2018-03-22T19:41:30.900Z,100510.51
2018-03-22T19:43:56.741Z,100510.50
2018-03-22T19:46:22.626Z,100519.17
2018-03-22T19:48:48.600Z,100518.30
2018-03-22T19:51:14.551Z,100525.25
2018-03-22T19:53:40.395Z,100525.67
2018-03-22T19:56:06.291Z,100526.13
2018-03-22T19:58:32.276Z,100526.97
2018-03-22T20:00:58.225Z,100528.27
2018-03-22T20:03:24.128Z,100531.73
2018-03-22T20:05:49.989Z,100531.77
2018-03-22T20:08:15.837Z,100521.34
2018-03-22T20:10:42.229Z,100524.83
2018-03-22T20:13:08.273Z,100523.96
2018-03-22T20:15:34.137Z,100520.05
2018-03-22T20:18:00.490Z,100518.75
2018-03-22T20:20:26.359Z,100522.66
2018-03-22T20:22:52.204Z,100527.00
2018-03-22T20:25:18.340Z,100526.53
2018-03-22T20:27:44.204Z,100531.77
2018-03-22T20:30:10.049Z,100526.98
2018-03-22T20:32:35.970Z,100527.84
2018-03-22T20:35:01.833Z,100526.13
2018-03-22T20:37:27.849Z,100527.86
2018-03-22T20:39:53.766Z,100528.30
2018-03-22T20:42:19.621Z,100529.60
2018-03-22T20:44:45.492Z,100536.09
2018-03-22T20:47:11.688Z,100531.34
2018-03-22T20:49:37.758Z,100518.32
2018-03-22T20:52:03.617Z,100520.05
2018-03-22T20:54:30.162Z,100520.06
2018-03-22T20:56:56.032Z,100520.92
2018-03-22T20:59:21.929Z,100520.48
2018-03-22T21:01:47.970Z,100522.66
2018-03-22T21:04:13.828Z,100519.19
2018-03-22T21:06:39.688Z,100515.70
2018-03-22T21:09:05.601Z,100511.81
2018-03-22T21:11:31.442Z,100510.09
2018-03-22T21:13:58.009Z,100506.62
2018-03-22T21:16:23.922Z,100513.10
2018-03-22T21:18:49.769Z,100513.99
2018-03-22T21:21:15.630Z,100513.55
2018-03-22T21:23:41.545Z,100514.84
2018-03-22T21:26:07.574Z,100513.99
2018-03-22T21:28:33.441Z,100519.63
2018-03-22T21:30:59.320Z,100519.63
2018-03-22T21:33:25.173Z,100513.98
2018-03-22T21:35:51.024Z,100512.67
2018-03-22T21:38:17.069Z,100514.41
2018-03-22T21:40:42.924Z,100520.94
2018-03-22T21:43:08.772Z,100512.70
2018-03-22T21:45:34.673Z,100507.03
2018-03-22T21:48:00.525Z,100505.74
2018-03-22T21:50:39.245Z,100498.80
2018-03-22T21:53:05.105Z,100503.58
2018-03-22T21:55:30.961Z,100507.06
2018-03-22T21:57:56.844Z,100518.33
2018-03-22T22:00:22.741Z,100514.42
2018-03-22T22:02:48.749Z,100518.77
2018-03-22T22:05:14.657Z,100518.31
2018-03-22T22:07:40.522Z,100515.30
2018-03-22T22:10:06.392Z,100514.00
2018-03-22T22:12:32.313Z,100511.37
2018-03-22T22:14:58.314Z,100520.91
2018-03-22T22:17:24.174Z,100523.52
2018-03-22T22:19:50.078Z,100513.56
2018-03-22T22:22:15.932Z,100517.89
2018-03-22T22:24:41.789Z,100520.50
2018-03-22T22:27:07.821Z,100520.48
2018-03-22T22:29:33.690Z,100523.53
2018-03-22T22:31:59.573Z,100512.69
2018-03-22T22:34:25.485Z,100504.87
2018-03-22T22:36:51.333Z,100503.14
2018-03-22T22:39:17.341Z,100503.15
2018-03-22T22:41:43.242Z,100494.04
2018-03-22T22:44:09.098Z,100502.28
2018-03-22T22:46:35.096Z,100500.98
2018-03-22T22:49:01.010Z,100500.55
2018-03-22T22:51:27.010Z,100500.54
2018-03-22T22:53:52.867Z,100495.77
2018-03-22T22:56:18.770Z,100496.64
2018-03-22T22:58:44.629Z,100497.94
2018-03-22T23:01:10.484Z,100494.03
2018-03-22T23:03:36.528Z,100491.42
2018-03-22T23:06:02.394Z,100489.28
2018-03-22T23:08:28.260Z,100491.88
2018-03-22T23:10:54.136Z,100484.48
2018-03-22T23:13:19.975Z,100490.57
2018-03-22T23:15:45.978Z,100491.42
2018-03-22T23:18:11.897Z,100490.55
2018-03-22T23:20:37.749Z,100489.69
2018-03-22T23:23:03.606Z,100488.41
2018-03-22T23:25:29.792Z,100483.61
2018-03-22T23:27:55.776Z,100483.61
2018-03-22T23:30:21.617Z,100489.69
2018-03-22T23:32:47.515Z,100487.51
2018-03-22T23:35:13.390Z,100484.47
2018-03-22T23:37:39.260Z,100483.17
2018-03-22T23:40:05.356Z,100478.83
2018-03-22T23:42:31.208Z,100477.97
2018-03-22T23:44:57.056Z,100479.70
2018-03-22T23:47:23.872Z,100479.27
2018-03-22T23:49:50.185Z,100478.42
2018-03-22T23:52:16.455Z,100484.93
2018-03-22T23:54:42.559Z,100475.38
2018-03-22T23:57:08.545Z,100473.63
2018-03-22T23:59:34.868Z,100470.60
